Leechburg, Pennsylvania
Current Conditions -  °F | °C
As of 9:35 AM on Friday 24 Oct 2014 (Local Time) from KBTP Reporting Station
Broken Clouds Broken Clouds  
Wind Chill: 43°   Ceiling: 2000
Heat Index: 43°   Visibility: 5mi
Dew Point: 39°   Wind: 0mph
Humidity: 87%   Direction: NA
Pressure: 30.12"   Gusts: NA
Location:  40.63°N, 79.61°W
Report Text: KBTP 241335Z AUTO 00000KT 5SM FEW008 SCT013 BKN020 06/04 A3012 RMK AO1
Loading
Personal Weather Stations






























Interactive Weather Map
Tropical Storm Tracking
New forecast layout! Learn more

10-Day Weather Forecast

Advertisements
Track Severe Weather on mobile